Time;durP1;ratioP1;P1;durP2;ratioP2;P2;SDS_P1;SDS_P2;PMS_P1;PMS_P2;Temp;Humidity;BMP_temperature;BMP_pressure;BME280_temperature;BME280_humidity;BME280_pressure;Samples;Min_cycle;Max_cycle;Signal;HPM_P1;HPM_P2
2022/08/14 00:01:23;;;;;;;6.43;2.90;;;18.60;94.30;;;;;;4994366;28;20269;-80
2022/08/14 00:03:48;;;;;;;2.93;2.73;;;18.50;94.50;;;;;;4977549;28;20217;-79
2022/08/14 00:06:14;;;;;;;2.83;2.53;;;18.50;93.90;;;;;;4994081;28;20689;-77
2022/08/14 00:08:40;;;;;;;4.70;3.13;;;18.50;94.70;;;;;;4977555;28;20189;-78
2022/08/14 00:11:06;;;;;;;2.67;2.47;;;18.40;94.30;;;;;;5011540;28;20207;-78
2022/08/14 00:13:32;;;;;;;3.47;2.67;;;18.40;94.70;;;;;;5016337;28;20431;-79
2022/08/14 00:15:59;;;;;;;3.40;2.40;;;18.40;94.60;;;;;;5033158;28;20169;-75
2022/08/14 00:18:26;;;;;;;18.03;3.50;;;18.20;94.60;;;;;;5019532;28;20430;-76
2022/08/14 00:20:53;;;;;;;4.33;2.50;;;17.90;95.50;;;;;;5019445;28;20448;-75
2022/08/14 00:23:19;;;;;;;3.70;2.20;;;17.80;96.30;;;;;;4986472;28;20646;-78
2022/08/14 00:25:48;;;;;;;2.57;2.33;;;17.70;97.00;;;;;;5019877;28;20502;-79
2022/08/14 00:28:14;;;;;;;5.83;3.20;;;17.80;97.50;;;;;;4986796;28;20430;-77
2022/08/14 00:30:40;;;;;;;2.90;2.60;;;17.80;97.80;;;;;;5014100;28;20432;-77
2022/08/14 00:33:06;;;;;;;3.90;2.70;;;17.80;97.20;;;;;;5015864;28;20187;-77
2022/08/14 00:35:32;;;;;;;7.07;2.83;;;17.80;98.30;;;;;;5017769;28;20423;-77
2022/08/14 00:37:58;;;;;;;8.10;2.77;;;17.80;98.30;;;;;;5018615;28;20424;-77
2022/08/14 00:40:24;;;;;;;3.63;2.70;;;17.80;97.90;;;;;;4998641;28;21261;-78
2022/08/14 00:42:50;;;;;;;3.10;2.17;;;17.60;98.30;;;;;;4999258;28;20471;-78
2022/08/14 00:45:16;;;;;;;3.03;2.43;;;17.50;97.40;;;;;;5014668;28;20238;-77
2022/08/14 00:47:44;;;;;;;2.70;2.40;;;17.30;97.90;;;;;;5014043;28;20185;-78
2022/08/14 00:50:13;;;;;;;2.60;2.40;;;17.20;98.20;;;;;;5011914;28;20566;-77
2022/08/14 00:52:38;;;;;;;3.90;2.70;;;17.20;98.20;;;;;;5013068;28;20431;-77
2022/08/14 00:55:07;;;;;;;2.93;2.63;;;17.30;98.30;;;;;;4995711;28;20435;-78
2022/08/14 00:57:34;;;;;;;4.40;2.30;;;17.40;98.50;;;;;;5011282;28;20180;-77
2022/08/14 01:00:00;;;;;;;2.83;2.60;;;17.40;98.30;;;;;;4995222;28;20463;-79
2022/08/14 01:02:27;;;;;;;2.80;2.60;;;17.50;98.10;;;;;;4992605;28;20980;-75
2022/08/14 01:04:59;;;;;;;2.50;2.03;;;17.50;98.40;;;;;;5009815;28;20417;-75
2022/08/14 01:07:28;;;;;;;5.37;2.40;;;17.40;99.50;;;;;;5013869;28;20435;-80
2022/08/14 01:10:03;;;;;;;7.23;2.43;;;17.40;99.90;;;;;;4997390;28;20438;-78
2022/08/14 01:12:32;;;;;;;2.20;2.00;;;17.40;99.60;;;;;;5014449;28;20427;-79
2022/08/14 01:15:00;;;;;;;2.63;2.37;;;17.40;99.20;;;;;;4981055;28;20443;-79
2022/08/14 01:22:57;;;;;;;2.63;2.43;;;17.20;99.90;;;;;;4999567;28;20479;-78
2022/08/14 01:25:23;;;;;;;3.67;2.47;;;17.20;99.90;;;;;;4976600;28;20429;-80
2022/08/14 01:27:49;;;;;;;2.53;2.33;;;17.10;99.90;;;;;;5010971;28;20179;-80
2022/08/14 01:30:15;;;;;;;3.80;2.37;;;17.10;99.90;;;;;;5011019;28;20505;-78
2022/08/14 01:32:41;;;;;;;4.10;2.50;;;17.10;99.90;;;;;;5010793;28;20459;-77
2022/08/14 01:35:07;;;;;;;4.30;3.00;;;17.00;99.90;;;;;;5009354;28;20468;-77
2022/08/14 01:37:33;;;;;;;2.43;2.23;;;17.00;99.90;;;;;;4992255;28;20197;-77
2022/08/14 01:39:59;;;;;;;3.30;2.73;;;17.00;99.90;;;;;;4991527;28;20466;-77
2022/08/14 01:42:27;;;;;;;2.70;2.47;;;17.00;99.90;;;;;;4991881;28;20223;-78
2022/08/14 01:44:57;;;;;;;2.50;2.30;;;17.00;99.90;;;;;;4991501;28;20443;-79
2022/08/14 01:47:24;;;;;;;2.57;2.37;;;17.00;99.90;;;;;;4991066;28;20430;-78
2022/08/14 01:49:50;;;;;;;2.73;2.00;;;17.00;99.90;;;;;;4991449;28;20481;-78
2022/08/14 01:52:16;;;;;;;2.40;2.20;;;17.00;99.90;;;;;;4991506;28;20959;-78
2022/08/14 01:54:42;;;;;;;2.20;2.10;;;17.00;99.90;;;;;;4977427;28;20551;-80
2022/08/14 01:57:10;;;;;;;4.37;2.50;;;17.00;99.90;;;;;;4978935;28;20529;-79
2022/08/14 01:59:37;;;;;;;2.60;2.40;;;17.00;99.90;;;;;;4994320;28;20665;-79
2022/08/14 02:02:11;;;;;;;3.30;2.13;;;17.00;99.90;;;;;;5013067;28;21293;-80
2022/08/14 02:04:37;;;;;;;3.20;2.60;;;16.90;99.90;;;;;;4994625;28;20494;-79
2022/08/14 02:07:04;;;;;;;2.50;2.30;;;17.00;99.90;;;;;;4994567;28;20448;-78
2022/08/14 02:09:34;;;;;;;4.33;3.50;;;17.00;99.90;;;;;;4993975;28;20525;-78
2022/08/14 02:12:01;;;;;;;2.50;2.30;;;16.80;99.90;;;;;;4994704;28;20431;-78
2022/08/14 02:14:28;;;;;;;3.67;2.50;;;16.80;99.90;;;;;;4994903;28;20474;-79
2022/08/14 02:16:56;;;;;;;2.83;2.63;;;16.90;99.90;;;;;;4994738;28;20435;-80
2022/08/14 02:19:25;;;;;;;2.80;2.30;;;16.70;99.90;;;;;;4995410;28;20489;-80
2022/08/14 02:21:53;;;;;;;3.47;2.70;;;16.50;99.90;;;;;;4995845;28;20439;-79
2022/08/14 02:24:22;;;;;;;4.30;2.43;;;16.60;99.90;;;;;;4995411;28;20433;-80
2022/08/14 02:26:48;;;;;;;2.70;2.50;;;16.60;99.90;;;;;;4979707;28;20503;-80
2022/08/14 02:29:17;;;;;;;4.33;2.20;;;16.50;99.90;;;;;;4996187;28;20462;-78
2022/08/14 02:31:48;;;;;;;2.83;2.63;;;16.60;99.90;;;;;;5014178;28;20455;-79
2022/08/14 02:34:20;;;;;;;2.40;2.20;;;16.50;99.90;;;;;;5014640;28;20448;-79
2022/08/14 02:36:47;;;;;;;3.07;2.77;;;16.50;99.90;;;;;;4997290;28;20517;-79
2022/08/14 02:39:13;;;;;;;5.13;2.97;;;16.40;99.90;;;;;;4998481;28;20490;-80
2022/08/14 02:41:41;;;;;;;2.40;2.20;;;16.40;99.90;;;;;;4997973;28;20466;-79
2022/08/14 02:44:09;;;;;;;7.33;2.77;;;16.40;99.90;;;;;;5015659;28;20849;-79
2022/08/14 02:46:38;;;;;;;2.33;2.13;;;16.30;99.90;;;;;;4998313;28;20487;-79
2022/08/14 02:49:05;;;;;;;4.50;2.60;;;16.30;99.90;;;;;;4981581;28;20431;-80
2022/08/14 02:51:32;;;;;;;3.00;2.67;;;16.20;99.90;;;;;;4981953;28;20450;-81
2022/08/14 02:53:59;;;;;;;4.03;2.60;;;16.10;99.90;;;;;;4998217;28;20431;-80
2022/08/14 02:56:26;;;;;;;2.80;2.57;;;16.10;99.90;;;;;;4981258;28;20439;-80
2022/08/14 02:58:56;;;;;;;4.67;3.00;;;16.10;99.90;;;;;;4981612;28;20947;-80
2022/08/14 03:01:23;;;;;;;2.97;2.77;;;15.90;99.90;;;;;;5000532;28;20541;-79
2022/08/14 03:03:49;;;;;;;3.20;2.30;;;15.70;99.90;;;;;;4984409;28;20568;-78
2022/08/14 03:06:19;;;;;;;2.50;2.30;;;15.60;99.90;;;;;;4998068;28;20548;-78
2022/08/14 03:08:45;;;;;;;4.97;2.27;;;15.60;99.90;;;;;;5000087;28;20418;-79
2022/08/14 03:11:12;;;;;;;2.73;2.47;;;15.60;99.90;;;;;;4999979;28;20458;-78
2022/08/14 03:13:42;;;;;;;3.67;3.17;;;15.60;99.90;;;;;;5017664;28;20187;-80
2022/08/14 03:16:13;;;;;;;2.47;2.27;;;15.70;99.90;;;;;;5000149;28;20441;-78
2022/08/14 03:18:41;;;;;;;3.57;2.90;;;15.70;99.90;;;;;;4985596;28;20438;-79
2022/08/14 03:21:10;;;;;;;3.50;2.53;;;15.80;99.90;;;;;;4994583;28;20453;-77
2022/08/14 03:23:36;;;;;;;3.63;2.50;;;15.80;99.90;;;;;;5011406;28;20561;-78
2022/08/14 03:26:02;;;;;;;3.00;2.70;;;15.80;99.90;;;;;;4993644;28;20554;-77
2022/08/14 03:28:29;;;;;;;3.60;2.90;;;15.80;99.90;;;;;;5011361;28;20521;-78
2022/08/14 03:30:56;;;;;;;3.17;2.87;;;15.80;99.90;;;;;;4993409;28;20447;-79
2022/08/14 03:33:22;;;;;;;3.83;3.20;;;15.70;99.90;;;;;;4993527;28;20496;-78
2022/08/14 03:35:49;;;;;;;3.03;2.73;;;15.60;99.90;;;;;;4993442;28;20439;-78
2022/08/14 03:38:17;;;;;;;3.13;2.93;;;15.40;99.90;;;;;;4994885;28;20500;-79
2022/08/14 03:40:43;;;;;;;4.27;3.33;;;15.10;99.90;;;;;;4979407;28;20454;-79
2022/08/14 03:43:10;;;;;;;3.03;2.73;;;14.90;99.90;;;;;;4995167;28;20533;-78
2022/08/14 03:45:37;;;;;;;5.83;3.33;;;14.80;99.90;;;;;;5013043;28;20414;-78
2022/08/14 03:48:18;;;;;;;3.10;2.90;;;14.80;99.90;;;;;;4993791;28;20449;-78
2022/08/14 03:50:46;;;;;;;3.73;3.43;;;14.80;99.90;;;;;;4994363;28;20462;-78
2022/08/14 03:53:12;;;;;;;4.17;2.67;;;14.90;99.90;;;;;;4979303;28;20485;-78
2022/08/14 03:55:39;;;;;;;5.23;3.60;;;14.90;99.90;;;;;;4979259;28;20520;-78
2022/08/14 03:58:06;;;;;;;3.53;3.10;;;14.90;99.90;;;;;;5015136;28;20475;-78
2022/08/14 04:00:32;;;;;;;3.67;3.07;;;15.00;99.90;;;;;;4995783;28;20453;-78
2022/08/14 04:02:58;;;;;;;3.50;3.20;;;14.90;99.90;;;;;;4979128;28;20473;-78
2022/08/14 04:05:24;;;;;;;4.93;3.13;;;14.70;99.90;;;;;;4995172;28;20457;-77
2022/08/14 04:07:50;;;;;;;4.47;3.77;;;14.70;99.90;;;;;;5012991;28;20205;-78
2022/08/14 04:10:16;;;;;;;3.83;3.53;;;14.80;99.90;;;;;;4994770;28;20809;-78
2022/08/14 04:12:42;;;;;;;4.80;3.40;;;14.80;99.90;;;;;;5011427;28;20193;-79
2022/08/14 04:15:09;;;;;;;3.03;2.67;;;14.70;99.90;;;;;;4993522;28;20425;-78
2022/08/14 04:17:34;;;;;;;3.70;3.10;;;14.80;99.90;;;;;;5011235;28;20801;-77
2022/08/14 04:20:02;;;;;;;2.80;2.60;;;14.80;99.90;;;;;;5011283;28;20452;-77
2022/08/14 04:22:32;;;;;;;3.03;2.83;;;14.80;99.90;;;;;;5011678;28;20271;-77
2022/08/14 04:25:00;;;;;;;3.80;2.60;;;14.80;99.90;;;;;;5011472;28;20421;-77
2022/08/14 04:27:26;;;;;;;5.13;3.07;;;14.80;99.90;;;;;;5011337;28;20431;-77
2022/08/14 04:29:52;;;;;;;2.60;2.40;;;14.80;99.90;;;;;;4976803;28;20463;-77
2022/08/14 04:32:19;;;;;;;2.80;2.60;;;14.80;99.90;;;;;;5011338;28;20429;-78
2022/08/14 04:34:44;;;;;;;3.70;2.93;;;14.80;99.90;;;;;;4993149;28;20446;-80
2022/08/14 04:45:31;;;;;;;3.87;3.00;;;14.90;99.90;;;;;;4995527;28;20476;-77
2022/08/14 04:48:12;;;;;;;2.30;1.83;;;15.00;99.90;;;;;;4993960;28;20854;-77
2022/08/14 04:50:39;;;;;;;3.53;2.97;;;15.10;99.90;;;;;;4992533;28;20445;-76
2022/08/14 04:53:05;;;;;;;2.77;2.50;;;15.10;99.90;;;;;;5010468;28;20969;-77
2022/08/14 04:55:31;;;;;;;3.17;2.97;;;15.20;99.90;;;;;;4976724;28;20524;-76
2022/08/14 04:57:58;;;;;;;3.60;3.10;;;15.20;99.90;;;;;;4994533;28;20278;-77
2022/08/14 05:00:24;;;;;;;3.70;2.40;;;15.30;99.90;;;;;;4993516;28;20454;-77
2022/08/14 05:02:49;;;;;;;4.50;2.70;;;15.30;99.90;;;;;;4992936;28;20480;-77
2022/08/14 05:05:15;;;;;;;2.97;2.77;;;15.20;99.90;;;;;;4992736;28;20441;-77
2022/08/14 05:07:41;;;;;;;2.70;2.50;;;14.80;99.90;;;;;;4993312;28;20187;-78
2022/08/14 05:10:07;;;;;;;3.10;2.60;;;14.60;99.90;;;;;;5010876;28;20496;-78
2022/08/14 05:12:34;;;;;;;5.37;2.90;;;14.70;99.90;;;;;;5010580;28;20421;-77
2022/08/14 05:14:59;;;;;;;3.13;2.57;;;15.00;99.90;;;;;;4997432;28;20432;-75
2022/08/14 05:17:25;;;;;;;4.90;3.07;;;15.20;99.90;;;;;;5010039;28;20425;-75
2022/08/14 05:19:51;;;;;;;2.70;2.50;;;15.40;99.90;;;;;;4992742;28;20214;-78
2022/08/14 05:22:18;;;;;;;2.77;2.53;;;15.50;99.90;;;;;;4979479;28;20222;-78
2022/08/14 05:24:48;;;;;;;2.73;2.53;;;15.70;99.90;;;;;;4994772;28;20521;-75
2022/08/14 05:27:14;;;;;;;3.17;2.80;;;15.80;99.90;;;;;;4992376;28;20450;-75
2022/08/14 05:29:43;;;;;;;6.13;2.97;;;16.00;99.90;;;;;;5009604;28;20423;-75
2022/08/14 05:32:09;;;;;;;8.17;3.10;;;16.20;99.90;;;;;;4976031;28;20465;-74
2022/08/14 05:34:35;;;;;;;3.30;3.00;;;16.30;99.90;;;;;;4991680;28;20474;-75
2022/08/14 05:37:02;;;;;;;2.63;2.43;;;16.50;99.90;;;;;;4991625;28;20422;-75
2022/08/14 05:39:28;;;;;;;2.93;2.60;;;16.70;99.90;;;;;;5009262;28;20533;-75
2022/08/14 05:41:55;;;;;;;4.50;2.70;;;16.80;99.90;;;;;;5009126;28;20499;-75
2022/08/14 05:44:21;;;;;;;2.97;2.77;;;16.90;99.90;;;;;;5009134;28;20415;-75
2022/08/14 05:46:47;;;;;;;3.33;3.03;;;17.10;99.90;;;;;;4991446;28;20836;-75
2022/08/14 05:49:13;;;;;;;4.93;3.60;;;17.20;99.90;;;;;;5008923;28;20211;-75
2022/08/14 05:51:39;;;;;;;3.37;3.07;;;17.40;99.90;;;;;;5009146;28;20854;-75
2022/08/14 05:54:06;;;;;;;4.47;3.00;;;17.50;99.90;;;;;;4991215;28;20296;-75
2022/08/14 05:56:31;;;;;;;10.20;3.47;;;17.60;99.90;;;;;;4991129;28;20459;-74
2022/08/14 05:58:58;;;;;;;3.30;3.00;;;17.60;99.90;;;;;;5008726;28;20462;-75
2022/08/14 06:01:23;;;;;;;3.90;3.60;;;17.70;99.90;;;;;;5008908;28;20478;-75
2022/08/14 06:03:49;;;;;;;4.17;3.37;;;17.80;99.90;;;;;;5008772;28;20466;-75
2022/08/14 06:06:17;;;;;;;5.70;3.57;;;17.90;99.90;;;;;;5008506;28;20283;-74
2022/08/14 06:08:42;;;;;;;5.87;3.83;;;17.90;99.90;;;;;;5008585;28;20508;-75
2022/08/14 06:11:09;;;;;;;8.17;3.77;;;18.00;99.90;;;;;;5009637;28;21016;-74
2022/08/14 06:13:40;;;;;;;3.50;3.30;;;18.10;99.90;;;;;;5012351;28;20187;-75
2022/08/14 06:16:06;;;;;;;4.00;3.20;;;18.10;99.90;;;;;;5012364;28;20422;-74
2022/08/14 06:18:32;;;;;;;3.63;3.33;;;18.20;99.90;;;;;;4994299;28;21056;-74
2022/08/14 06:20:58;;;;;;;3.67;3.37;;;18.30;99.90;;;;;;5012120;28;20443;-75
2022/08/14 06:23:24;;;;;;;5.60;3.30;;;18.30;99.90;;;;;;5012060;28;20462;-75
2022/08/14 06:25:49;;;;;;;6.50;3.90;;;18.40;99.90;;;;;;5012129;28;20194;-75
2022/08/14 06:28:20;;;;;;;4.77;3.20;;;18.50;99.90;;;;;;4994360;28;20265;-76
2022/08/14 06:30:46;;;;;;;3.50;3.20;;;18.60;99.90;;;;;;5012255;28;20203;-75
2022/08/14 06:33:12;;;;;;;3.53;3.23;;;18.70;99.90;;;;;;4994583;28;20503;-75
2022/08/14 06:35:39;;;;;;;6.63;3.13;;;18.80;99.90;;;;;;5012598;28;20933;-75
2022/08/14 06:38:05;;;;;;;5.10;3.60;;;18.90;99.90;;;;;;4995157;28;20422;-74
2022/08/14 06:40:36;;;;;;;6.03;3.20;;;19.10;99.90;;;;;;5012539;28;20439;-75
2022/08/14 06:43:07;;;;;;;4.90;3.40;;;19.10;99.30;;;;;;5012097;28;20506;-74
2022/08/14 06:45:34;;;;;;;3.17;2.87;;;19.30;99.20;;;;;;4978225;28;20510;-76
2022/08/14 06:48:00;;;;;;;3.03;2.53;;;19.50;99.90;;;;;;5011910;28;20420;-75
2022/08/14 06:50:26;;;;;;;2.93;2.73;;;19.60;99.90;;;;;;5011745;28;20443;-75
2022/08/14 06:52:53;;;;;;;6.53;3.00;;;19.90;99.50;;;;;;5011572;28;20427;-76
2022/08/14 06:55:19;;;;;;;3.00;2.80;;;20.00;99.00;;;;;;4993845;28;20874;-75
2022/08/14 06:57:49;;;;;;;3.10;2.83;;;20.00;98.00;;;;;;5011693;28;20455;-75
2022/08/14 07:00:20;;;;;;;9.07;3.50;;;20.20;97.90;;;;;;5011646;28;20818;-75
2022/08/14 07:05:47;;;;;;;3.53;2.97;;;20.30;96.20;;;;;;5012111;28;20480;-74
2022/08/14 07:08:17;;;;;;;3.10;2.83;;;20.30;96.40;;;;;;5013026;28;20928;-75
2022/08/14 07:10:45;;;;;;;5.13;3.10;;;20.40;97.30;;;;;;4994423;28;20486;-76
2022/08/14 07:13:12;;;;;;;3.53;2.07;;;20.40;97.90;;;;;;4994508;28;20439;-75
2022/08/14 07:15:37;;;;;;;3.10;2.90;;;20.40;97.30;;;;;;5012128;28;20423;-76
2022/08/14 07:18:04;;;;;;;3.30;3.00;;;20.50;97.60;;;;;;4994660;28;20884;-74
2022/08/14 07:20:30;;;;;;;3.57;2.93;;;20.40;97.10;;;;;;5012124;28;20201;-75
2022/08/14 07:22:57;;;;;;;4.93;2.93;;;20.40;97.10;;;;;;5009192;28;20512;-76
2022/08/14 07:25:26;;;;;;;5.67;3.10;;;20.50;97.40;;;;;;4992891;28;21005;-75
2022/08/14 07:27:52;;;;;;;3.77;2.67;;;20.60;97.50;;;;;;5010357;28;20415;-75
2022/08/14 07:30:18;;;;;;;5.73;2.83;;;20.70;97.40;;;;;;4992566;28;20448;-75
2022/08/14 07:32:43;;;;;;;5.40;3.03;;;20.70;97.80;;;;;;5010453;28;20276;-75
2022/08/14 07:35:09;;;;;;;4.30;2.90;;;20.80;98.70;;;;;;4992950;28;20512;-76
2022/08/14 07:37:35;;;;;;;2.37;2.20;;;20.90;97.70;;;;;;5010435;28;20209;-75
2022/08/14 07:40:02;;;;;;;4.90;2.73;;;21.00;97.20;;;;;;5010265;28;20579;-76
2022/08/14 07:42:28;;;;;;;3.77;2.50;;;21.00;97.60;;;;;;5010415;28;20683;-75
2022/08/14 07:44:53;;;;;;;5.40;2.53;;;21.10;97.60;;;;;;5010455;28;20470;-76
2022/08/14 07:47:19;;;;;;;4.80;2.47;;;21.20;98.00;;;;;;4994536;28;20662;-76
2022/08/14 07:50:03;;;;;;;7.83;2.70;;;21.30;99.20;;;;;;5011715;28;20196;-76
2022/08/14 07:52:29;;;;;;;4.07;2.53;;;21.50;97.10;;;;;;5011478;28;20655;-76
2022/08/14 07:54:55;;;;;;;2.80;2.60;;;21.50;97.90;;;;;;5010870;28;20451;-74
2022/08/14 07:57:21;;;;;;;3.10;2.73;;;21.60;98.40;;;;;;5010302;28;20787;-74
2022/08/14 07:59:47;;;;;;;3.87;2.63;;;21.70;97.80;;;;;;5010830;28;20436;-74
2022/08/14 08:02:15;;;;;;;2.70;2.50;;;21.90;97.00;;;;;;4992117;28;21067;-74
2022/08/14 08:04:44;;;;;;;2.50;2.17;;;22.10;96.50;;;;;;4992268;28;20420;-74
2022/08/14 08:07:10;;;;;;;5.47;2.93;;;22.20;96.40;;;;;;4992597;28;20444;-74
2022/08/14 08:09:41;;;;;;;3.53;2.60;;;22.30;95.30;;;;;;5009956;28;20405;-74
2022/08/14 08:12:08;;;;;;;2.97;2.77;;;22.50;95.60;;;;;;5009877;28;20520;-74
2022/08/14 08:14:34;;;;;;;3.40;3.10;;;22.60;95.70;;;;;;5009500;28;20770;-74
2022/08/14 08:17:00;;;;;;;2.80;2.60;;;22.80;94.80;;;;;;4991326;28;20429;-74
2022/08/14 08:19:26;;;;;;;2.70;2.50;;;22.90;94.20;;;;;;5009078;28;20173;-73
2022/08/14 08:21:53;;;;;;;4.10;2.50;;;23.10;94.20;;;;;;5009038;28;20430;-74
2022/08/14 08:24:19;;;;;;;3.13;2.60;;;23.20;94.20;;;;;;5009323;28;20835;-74
2022/08/14 08:26:44;;;;;;;2.90;2.57;;;23.30;92.70;;;;;;4991299;28;20437;-74
2022/08/14 08:29:21;;;;;;;2.60;2.30;;;23.40;93.20;;;;;;4991417;28;20198;-74
2022/08/14 08:31:51;;;;;;;3.30;2.60;;;23.50;92.60;;;;;;5009360;28;20304;-74
2022/08/14 08:34:18;;;;;;;2.30;2.20;;;23.80;92.40;;;;;;5008818;28;20464;-74
2022/08/14 08:36:44;;;;;;;3.00;2.57;;;24.00;87.70;;;;;;4991624;28;20448;-74
2022/08/14 08:39:11;;;;;;;3.37;2.90;;;24.20;85.00;;;;;;5009223;28;20806;-73
2022/08/14 08:41:46;;;;;;;2.20;2.00;;;24.40;79.60;;;;;;5009169;28;20460;-74
2022/08/14 08:44:12;;;;;;;2.70;2.10;;;24.70;74.30;;;;;;4991666;28;20478;-75
2022/08/14 08:46:39;;;;;;;2.03;1.93;;;25.00;70.00;;;;;;4991610;28;20482;-74
2022/08/14 08:49:05;;;;;;;5.93;2.37;;;25.20;69.30;;;;;;5009097;28;20963;-74
2022/08/14 08:51:34;;;;;;;2.30;2.13;;;25.30;65.90;;;;;;5009016;28;21322;-74
2022/08/14 08:54:00;;;;;;;2.43;2.23;;;25.50;65.40;;;;;;5009125;28;20419;-74
2022/08/14 08:56:37;;;;;;;2.30;2.10;;;25.60;64.20;;;;;;5009999;28;20438;-74
2022/08/14 08:59:31;;;;;;;3.60;2.30;;;25.70;63.40;;;;;;4992284;28;20200;-74
2022/08/14 09:02:04;;;;;;;3.33;2.50;;;25.90;62.50;;;;;;5009038;28;20921;-74
2022/08/14 09:04:43;;;;;;;2.37;2.27;;;26.20;63.60;;;;;;5008838;28;20416;-74
2022/08/14 09:07:09;;;;;;;3.77;2.60;;;26.50;62.60;;;;;;4990606;28;20478;-74
2022/08/14 09:09:50;;;;;;;2.60;2.40;;;26.70;60.10;;;;;;5008601;28;20419;-73
2022/08/14 09:12:16;;;;;;;6.20;2.60;;;26.80;59.10;;;;;;5008556;28;20538;-73
2022/08/14 09:14:42;;;;;;;3.27;2.40;;;27.10;59.20;;;;;;5008469;28;20412;-74
2022/08/14 09:17:09;;;;;;;2.50;2.17;;;27.20;57.50;;;;;;5008423;28;20420;-74
2022/08/14 09:19:35;;;;;;;2.40;2.20;;;27.40;57.00;;;;;;5008426;28;20462;-74
2022/08/14 09:22:02;;;;;;;2.23;2.03;;;27.70;56.80;;;;;;4990446;28;20983;-73
2022/08/14 09:24:29;;;;;;;2.37;2.17;;;27.80;55.80;;;;;;4974195;28;21265;-73
2022/08/14 09:26:55;;;;;;;1.60;1.50;;;27.90;55.50;;;;;;5008429;28;20412;-74
2022/08/14 09:29:20;;;;;;;2.63;2.20;;;28.30;55.50;;;;;;5008745;28;20921;-74
2022/08/14 09:31:52;;;;;;;2.23;2.13;;;28.00;53.90;;;;;;4991076;28;20616;-74
2022/08/14 09:34:30;;;;;;;2.27;2.17;;;28.50;54.60;;;;;;5009070;28;20408;-74
2022/08/14 09:36:55;;;;;;;4.33;2.13;;;28.70;52.90;;;;;;5009381;28;20804;-74
2022/08/14 09:39:44;;;;;;;1.80;1.70;;;29.10;52.50;;;;;;5009125;28;20416;-73
2022/08/14 09:42:48;;;;;;;1.80;1.70;;;29.30;50.80;;;;;;5008918;28;20184;-74
2022/08/14 09:45:46;;;;;;;8.47;2.30;;;29.70;50.50;;;;;;4978235;28;20781;-74
2022/08/14 09:48:22;;;;;;;2.40;2.20;;;30.10;49.60;;;;;;5013053;28;20444;-75
2022/08/14 09:50:51;;;;;;;2.43;2.23;;;30.10;47.80;;;;;;5012880;28;20436;-76
2022/08/14 09:53:32;;;;;;;5.97;2.00;;;30.20;48.30;;;;;;4995426;28;20515;-74
2022/08/14 09:55:58;;;;;;;2.03;1.93;;;30.70;48.10;;;;;;5012480;28;20450;-74
2022/08/14 09:58:38;;;;;;;1.93;1.83;;;30.80;47.60;;;;;;4994680;28;20431;-74
2022/08/14 10:01:24;;;;;;;2.63;2.40;;;31.10;46.30;;;;;;5012440;28;20573;-74
2022/08/14 10:03:51;;;;;;;2.10;2.00;;;31.30;45.10;;;;;;5012137;28;20471;-74
2022/08/14 10:06:19;;;;;;;2.40;2.20;;;31.40;43.80;;;;;;5012053;28;20435;-74
2022/08/14 10:08:56;;;;;;;2.80;1.87;;;31.60;45.00;;;;;;5011947;28;20827;-74
2022/08/14 10:11:24;;;;;;;2.23;2.13;;;31.60;43.10;;;;;;5011839;28;20531;-74
2022/08/14 10:13:56;;;;;;;2.50;1.70;;;31.60;43.10;;;;;;5011922;28;20450;-74
2022/08/14 10:16:28;;;;;;;2.20;2.10;;;31.80;42.80;;;;;;5011995;28;20462;-74
2022/08/14 10:19:12;;;;;;;2.20;2.10;;;32.30;43.60;;;;;;5011706;28;20475;-74
2022/08/14 10:21:40;;;;;;;1.77;1.60;;;32.60;40.80;;;;;;4994059;28;20479;-74
2022/08/14 10:24:08;;;;;;;2.10;2.00;;;32.80;39.40;;;;;;5011787;28;20937;-74
2022/08/14 10:26:35;;;;;;;2.03;1.70;;;31.80;38.00;;;;;;4978009;28;20433;-74
2022/08/14 10:29:10;;;;;;;3.17;2.43;;;31.80;39.30;;;;;;4977656;28;20443;-73
2022/08/14 10:31:37;;;;;;;2.30;2.20;;;31.90;39.90;;;;;;5011429;28;20482;-73
2022/08/14 10:34:11;;;;;;;2.27;2.03;;;31.80;40.10;;;;;;4977366;28;20438;-75
2022/08/14 10:36:41;;;;;;;1.90;1.80;;;31.80;41.30;;;;;;5011517;28;20440;-74
2022/08/14 10:39:22;;;;;;;1.97;1.87;;;31.60;39.30;;;;;;5011602;28;20983;-74
2022/08/14 10:41:58;;;;;;;2.33;2.23;;;31.30;39.50;;;;;;5011274;28;20440;-74
2022/08/14 10:44:37;;;;;;;2.03;1.43;;;30.80;39.20;;;;;;5011538;28;20917;-74
2022/08/14 10:47:10;;;;;;;5.23;1.70;;;30.50;38.80;;;;;;5012412;28;20418;-74
2022/08/14 10:49:42;;;;;;;2.90;1.93;;;30.50;39.30;;;;;;5011388;28;20420;-74
2022/08/14 10:52:10;;;;;;;1.60;1.50;;;30.70;39.20;;;;;;5011563;28;20507;-74
2022/08/14 10:54:39;;;;;;;1.50;1.40;;;30.70;38.80;;;;;;5011290;28;20416;-73
2022/08/14 10:57:19;;;;;;;1.43;1.33;;;30.60;37.30;;;;;;5010547;28;20775;-75
2022/08/14 10:59:48;;;;;;;1.60;1.30;;;30.80;39.00;;;;;;5010778;28;20470;-73
2022/08/14 11:02:28;;;;;;;2.13;2.03;;;30.90;38.90;;;;;;4993306;28;20543;-74
2022/08/14 11:05:39;;;;;;;1.70;1.60;;;30.90;38.40;;;;;;4992809;28;20933;-74
2022/08/14 11:08:04;;;;;;;3.70;1.80;;;30.90;38.00;;;;;;4982684;28;20817;-74
2022/08/14 11:10:55;;;;;;;2.13;2.03;;;30.80;37.30;;;;;;4992648;28;20462;-74
2022/08/14 11:13:27;;;;;;;3.53;2.60;;;30.80;37.90;;;;;;5010637;28;20255;-73
2022/08/14 11:15:55;;;;;;;1.40;1.30;;;30.80;38.20;;;;;;5010604;28;20424;-73
2022/08/14 11:18:21;;;;;;;1.77;1.43;;;30.90;37.60;;;;;;5010624;28;20823;-74
2022/08/14 11:20:58;;;;;;;2.03;1.93;;;31.10;36.20;;;;;;5010545;28;20427;-73
2022/08/14 11:23:30;;;;;;;1.80;1.70;;;31.20;38.30;;;;;;4992840;28;20479;-74
2022/08/14 11:25:58;;;;;;;1.97;1.40;;;31.20;37.90;;;;;;5010634;28;20424;-73
2022/08/14 11:28:27;;;;;;;5.30;1.37;;;31.30;37.10;;;;;;5010486;28;20482;-75
2022/08/14 11:30:56;;;;;;;1.97;1.80;;;31.10;36.10;;;;;;5010496;28;20995;-73
2022/08/14 11:33:25;;;;;;;1.83;1.73;;;31.00;36.50;;;;;;5010683;28;20845;-73
2022/08/14 11:35:50;;;;;;;2.60;1.50;;;30.80;37.10;;;;;;4993677;28;20435;-73
2022/08/14 11:38:18;;;;;;;1.50;1.40;;;31.00;36.20;;;;;;5010823;28;20424;-73
2022/08/14 11:40:45;;;;;;;4.00;1.70;;;30.80;36.10;;;;;;5010800;28;20204;-73
2022/08/14 11:43:11;;;;;;;1.73;1.40;;;31.20;38.30;;;;;;5010636;28;20550;-74
2022/08/14 11:54:34;;;;;;;4.13;1.43;;;31.40;36.50;;;;;;5013176;28;20500;-70
2022/08/14 11:57:00;;;;;;;1.67;1.57;;;31.30;35.70;;;;;;5013080;28;20870;-71
2022/08/14 12:04:22;;;;;;;1.27;1.17;;;31.60;35.90;;;;;;5012665;28;20488;-71
2022/08/14 12:06:53;;;;;;;5.63;1.80;;;31.80;35.70;;;;;;4994740;28;20428;-71
2022/08/14 12:14:21;;;;;;;1.57;1.47;;;32.00;36.80;;;;;;5010778;28;20490;-71
2022/08/14 12:17:05;;;;;;;1.43;1.33;;;32.10;35.60;;;;;;5011952;28;20423;-71
2022/08/14 12:22:07;;;;;;;1.50;1.40;;;32.00;34.30;;;;;;4992399;28;20476;-71
2022/08/14 12:24:32;;;;;;;4.03;1.60;;;32.10;34.70;;;;;;4994446;28;20483;-71
2022/08/14 12:26:59;;;;;;;1.83;1.30;;;32.00;34.30;;;;;;4994765;28;20188;-77
2022/08/14 12:32:05;;;;;;;1.30;1.20;;;31.90;33.60;;;;;;5018935;23;20492;-69
2022/08/14 12:34:33;;;;;;;1.50;1.30;;;32.10;34.10;;;;;;5012745;28;20420;-69
2022/08/14 12:37:07;;;;;;;1.67;1.30;;;32.30;34.70;;;;;;5012549;28;20435;-68
2022/08/14 12:39:34;;;;;;;1.70;1.60;;;32.30;35.40;;;;;;5012355;28;20436;-69
2022/08/14 12:44:30;;;;;;;1.93;1.80;;;32.20;34.00;;;;;;4993347;28;20465;-68
2022/08/14 12:47:10;;;;;;;3.20;1.10;;;32.20;33.30;;;;;;4994773;28;20440;-68
2022/08/14 12:49:38;;;;;;;3.23;1.30;;;32.20;34.20;;;;;;4994792;28;20425;-68
2022/08/14 12:54:31;;;;;;;3.40;1.43;;;32.30;35.90;;;;;;5013031;28;20472;-69
2022/08/14 12:57:10;;;;;;;2.07;1.60;;;32.30;34.50;;;;;;5014034;28;20471;-69
2022/08/14 13:02:03;;;;;;;1.57;1.47;;;32.40;34.10;;;;;;5011941;28;20476;-69
2022/08/14 13:04:30;;;;;;;1.70;1.60;;;32.50;33.80;;;;;;5013857;28;20417;-68
2022/08/14 13:07:03;;;;;;;2.43;1.67;;;32.40;33.60;;;;;;5013244;28;20660;-68
2022/08/14 13:14:24;;;;;;;1.60;1.50;;;32.50;33.30;;;;;;5012317;28;20233;-68
2022/08/14 13:16:53;;;;;;;1.37;1.27;;;32.40;32.70;;;;;;4996087;28;20535;-68
2022/08/14 13:19:20;;;;;;;2.50;1.50;;;32.60;34.60;;;;;;5013577;28;20911;-68
2022/08/14 13:24:14;;;;;;;1.80;1.70;;;32.00;31.40;;;;;;5010890;28;20558;-68
2022/08/14 13:26:50;;;;;;;2.03;1.30;;;32.20;33.30;;;;;;5012487;28;20417;-68
2022/08/14 13:29:19;;;;;;;1.77;1.67;;;32.30;34.60;;;;;;5012970;28;20477;-68
2022/08/14 13:34:13;;;;;;;4.10;1.63;;;32.60;35.10;;;;;;4992224;28;20476;-70
2022/08/14 13:36:39;;;;;;;1.60;1.50;;;32.70;34.40;;;;;;4993741;28;20409;-69
2022/08/14 13:39:05;;;;;;;1.30;1.20;;;32.60;33.60;;;;;;4993871;28;20517;-69
2022/08/14 13:44:02;;;;;;;2.13;1.50;;;32.70;32.60;;;;;;5011238;28;20864;-69
2022/08/14 13:46:27;;;;;;;1.67;1.57;;;32.40;31.00;;;;;;4995738;28;20416;-69
2022/08/14 13:48:53;;;;;;;1.43;1.20;;;32.30;32.20;;;;;;5012666;28;20440;-69
2022/08/14 13:53:48;;;;;;;2.50;1.40;;;32.30;31.40;;;;;;5009881;28;20232;-69
2022/08/14 13:56:16;;;;;;;2.30;1.50;;;32.30;32.10;;;;;;5011228;28;20525;-69
2022/08/14 13:58:43;;;;;;;1.60;1.50;;;32.20;31.30;;;;;;4993174;28;20443;-69